Archival Weather

Fukuoka

Fukuoka, Japan (RJFF)

Report from: Tuesday, August 16, 2022 10:30 AM JST
Current time: Sunday, November 27, 2022 5:42 PM JST

Current weather
Weather history
Weather forecast

Present weatherVCSH, light rain showers
Temperature32.0°C (89.6°F)
Heat index40.7°C (105.2°F)
Dew point26.0°C (78.8°F)
Winds 12 kts (6.2 m/s, 13.8 mph) South-Southeast (150°)
Visibility6.2 mi. (10 km)
Clouds Few clouds 1,000 ft. (305 m)
Few clouds with towering cumulus 3,000 ft. (914 m)
Scattered clouds 3,500 ft. (1,067 m)
Ceiling: Broken clouds 5,000 ft. (1,524 m)
Altimeter29.74 in.Hg (1007 mB)
Relative humidity71 %
Density altitude2,598 ft. (792 m)
Remarks Towering cumulus clouds observed southwest moving northeast
Flight conditions Visual Meteorological Conditions
Raw dataRJFF 160130Z 15012KT 9999 VCSH FEW010 FEW030TCU SCT035 BKN050 32/26 Q1007 TEMPO 4000 -SHRA BR RMK 1CU010 1TCU030 3CU035 5SC050 A2974 TCU 20KM SW MOV NE
An error has occurred. This application may no longer respond until reloaded. Reload 🗙